Time;durP1;ratioP1;P1;durP2;ratioP2;P2;SDS_P1;SDS_P2;PMS_P1;PMS_P2;Temp;Humidity;BMP_temperature;BMP_pressure;BME280_temperature;BME280_humidity;BME280_pressure;Samples;Min_cycle;Max_cycle;Signal;HPM_P1;HPM_P2
2022/06/18 00:00:46;;;;;;;3.13;2.83;;;27.60;50.90;29.20;101120.00;;;;5066169;28;20158;-42
2022/06/18 00:03:12;;;;;;;3.17;2.80;;;27.60;50.80;29.20;101124.00;;;;5067107;28;20225;-41
2022/06/18 00:05:38;;;;;;;3.25;2.88;;;27.50;51.00;29.10;101117.00;;;;5069205;28;20267;-41
2022/06/18 00:08:09;;;;;;;3.58;3.15;;;27.60;51.00;29.10;101113.00;;;;5052123;28;20170;-42
2022/06/18 00:10:35;;;;;;;6.15;2.97;;;27.60;50.90;29.10;101107.00;;;;5053218;28;20202;-40
2022/06/18 00:15:58;;;;;;;3.13;2.83;;;27.50;50.90;29.10;101095.00;;;;5066070;28;20581;-43
2022/06/18 00:18:24;;;;;;;3.30;3.00;;;27.50;51.00;29.00;101105.00;;;;5066420;28;20170;-41
2022/06/18 00:20:50;;;;;;;3.75;2.97;;;27.40;51.10;29.00;101105.00;;;;5066141;28;20178;-42
2022/06/18 00:23:15;;;;;;;3.15;2.83;;;27.40;51.30;29.00;101100.00;;;;5065144;28;20295;-42
2022/06/18 00:25:49;;;;;;;4.55;2.90;;;27.40;51.00;29.00;101093.00;;;;5066742;28;20173;-42
2022/06/18 00:28:27;;;;;;;3.90;2.67;;;27.40;51.30;29.00;101104.00;;;;5066373;28;20174;-43
2022/06/18 00:30:53;;;;;;;3.10;2.80;;;27.40;51.20;29.00;101103.00;;;;5066919;28;20165;-41
2022/06/18 00:33:19;;;;;;;3.17;2.85;;;27.40;51.00;29.00;101100.00;;;;5066231;28;20196;-42
2022/06/18 00:35:45;;;;;;;3.05;2.85;;;27.40;51.20;28.90;101102.00;;;;5066301;28;20630;-42
2022/06/18 00:38:25;;;;;;;3.53;2.90;;;27.40;51.00;28.90;101090.00;;;;5066346;28;20174;-41
2022/06/18 00:40:51;;;;;;;3.33;2.88;;;27.40;51.10;28.90;101104.00;;;;5050404;28;20166;-42
2022/06/18 00:43:39;;;;;;;2.90;2.70;;;27.40;51.00;28.90;101099.00;;;;5066504;28;20270;-41
2022/06/18 00:46:21;;;;;;;3.05;2.70;;;27.40;50.70;28.80;101094.00;;;;5051365;28;20174;-41
2022/06/18 00:49:19;;;;;;;3.00;2.80;;;27.40;50.50;28.80;101100.00;;;;5050346;28;20268;-42
2022/06/18 00:51:49;;;;;;;3.10;2.90;;;27.30;50.40;28.80;101088.00;;;;5051878;28;20145;-42
2022/06/18 00:54:25;;;;;;;3.33;2.55;;;27.30;50.00;28.80;101094.00;;;;5048999;28;20256;-42
2022/06/18 00:57:04;;;;;;;2.92;2.72;;;27.30;50.00;28.70;101104.00;;;;5049534;28;20149;-42
2022/06/18 00:59:38;;;;;;;2.90;2.60;;;27.30;49.90;28.70;101092.00;;;;5065099;28;20176;-42
2022/06/18 01:02:04;;;;;;;4.03;2.65;;;27.20;49.70;28.70;101085.00;;;;5066596;28;20534;-41
2022/06/18 01:04:32;;;;;;;2.90;2.70;;;27.30;49.60;28.70;101083.00;;;;5067117;28;20185;-41
2022/06/18 01:07:28;;;;;;;4.30;2.80;;;27.20;49.70;28.60;101084.00;;;;5066072;28;20216;-43
2022/06/18 01:09:54;;;;;;;2.72;2.50;;;27.20;49.00;28.60;101085.00;;;;5050261;28;20322;-41
2022/06/18 01:12:20;;;;;;;2.88;2.63;;;27.20;49.20;28.60;101099.00;;;;5048075;28;20268;-42
2022/06/18 01:14:48;;;;;;;2.70;2.50;;;27.20;49.00;28.60;101091.00;;;;5064455;28;20221;-42
2022/06/18 01:17:14;;;;;;;2.63;2.42;;;27.20;49.20;28.60;101099.00;;;;5048495;28;20169;-42
2022/06/18 01:19:44;;;;;;;4.05;2.50;;;27.20;49.30;28.50;101081.00;;;;5079372;28;20172;-41
2022/06/18 01:22:36;;;;;;;2.90;2.70;;;27.20;48.70;28.50;101087.00;;;;5091856;28;20181;-42
2022/06/18 01:25:06;;;;;;;2.80;2.60;;;27.20;48.70;28.50;101083.00;;;;5083440;28;20769;-42
2022/06/18 01:27:36;;;;;;;3.22;2.67;;;27.10;48.50;28.50;101083.00;;;;5066851;28;20178;-41
2022/06/18 01:30:11;;;;;;;2.78;2.58;;;27.10;48.40;28.50;101077.00;;;;5066301;28;20613;-42
2022/06/18 01:32:36;;;;;;;3.05;2.65;;;27.00;48.40;28.40;101070.00;;;;5071363;28;20668;-41
2022/06/18 01:35:04;;;;;;;2.83;2.50;;;27.10;48.50;28.40;101067.00;;;;5054441;28;20165;-42
2022/06/18 01:37:31;;;;;;;2.70;2.50;;;27.10;48.50;28.40;101062.00;;;;5071965;28;20170;-42
2022/06/18 01:39:56;;;;;;;6.72;2.90;;;27.10;48.60;28.40;101070.00;;;;5072316;28;20181;-41
2022/06/18 01:42:35;;;;;;;2.85;2.65;;;27.10;48.60;28.40;101062.00;;;;5072331;28;20252;-42
2022/06/18 01:45:10;;;;;;;3.33;2.72;;;27.00;48.60;28.30;101061.00;;;;5056035;28;20232;-40
2022/06/18 01:47:54;;;;;;;2.97;2.65;;;27.00;48.40;28.30;101058.00;;;;5038700;28;20586;-42
2022/06/18 01:50:45;;;;;;;2.65;2.45;;;27.00;48.70;28.30;101050.00;;;;5071058;28;20181;-42
2022/06/18 01:53:22;;;;;;;2.95;2.65;;;27.00;48.30;28.20;101037.00;;;;5057307;28;20188;-43
2022/06/18 01:55:54;;;;;;;4.13;2.60;;;27.00;48.80;28.20;101047.00;;;;5055344;28;20169;-43
2022/06/18 01:58:37;;;;;;;2.55;2.33;;;27.00;48.10;28.20;101046.00;;;;5054438;28;20174;-42
2022/06/18 02:01:05;;;;;;;3.22;2.63;;;27.00;47.60;28.20;101044.00;;;;5056204;28;20154;-42
2022/06/18 02:03:31;;;;;;;2.78;2.42;;;26.90;48.20;28.20;101043.00;;;;5071387;28;20193;-42
2022/06/18 02:05:57;;;;;;;2.90;2.70;;;26.90;48.10;28.00;101043.00;;;;5072378;28;20656;-41
2022/06/18 02:08:22;;;;;;;3.15;2.50;;;26.90;48.60;28.10;101049.00;;;;5054058;28;20223;-42
2022/06/18 02:11:02;;;;;;;2.60;2.40;;;26.90;48.60;28.10;101051.00;;;;5072448;28;20197;-42
2022/06/18 02:13:37;;;;;;;3.60;2.53;;;26.90;48.30;28.10;101045.00;;;;5055931;28;20554;-41
2022/06/18 02:16:10;;;;;;;2.72;2.47;;;26.90;48.50;28.10;101037.00;;;;5071081;28;20230;-42
2022/06/18 02:18:35;;;;;;;2.65;2.45;;;26.90;48.60;28.10;100985.00;;;;5054870;28;20165;-42
2022/06/18 02:21:01;;;;;;;2.72;2.50;;;26.90;48.80;28.10;101035.00;;;;5054025;28;20661;-42
2022/06/18 02:23:27;;;;;;;3.85;2.60;;;26.90;48.90;28.10;101042.00;;;;5070573;28;20741;-42
2022/06/18 02:25:53;;;;;;;2.80;2.60;;;26.80;49.00;28.00;101038.00;;;;5073901;28;20176;-41
2022/06/18 02:28:26;;;;;;;3.85;2.63;;;26.80;49.10;28.00;101043.00;;;;5074465;28;20268;-42
2022/06/18 02:31:00;;;;;;;3.05;2.70;;;26.80;48.70;28.00;101042.00;;;;5057329;28;20170;-41
2022/06/18 02:33:42;;;;;;;5.10;2.50;;;26.70;49.20;27.90;101037.00;;;;5074322;28;20190;-42
2022/06/18 02:36:31;;;;;;;3.03;2.72;;;26.70;48.90;27.90;101028.00;;;;5070401;28;20188;-41
2022/06/18 02:39:37;;;;;;;3.85;2.60;;;26.70;48.90;27.80;101026.00;;;;5071586;28;20161;-42
2022/06/18 02:42:11;;;;;;;4.25;2.70;;;26.60;49.00;27.80;101025.00;;;;5069944;28;20249;-42
2022/06/18 02:44:38;;;;;;;3.00;2.50;;;26.70;49.10;27.80;101020.00;;;;5067014;28;20238;-41
2022/06/18 02:47:06;;;;;;;4.75;2.58;;;26.60;49.00;27.70;101029.00;;;;5067335;28;20169;-42
2022/06/18 02:49:38;;;;;;;3.25;2.63;;;26.60;49.20;27.70;101024.00;;;;5050984;28;20209;-42
2022/06/18 02:52:07;;;;;;;4.70;2.70;;;26.70;48.80;27.70;101022.00;;;;5051537;28;20208;-42
2022/06/18 02:54:33;;;;;;;5.43;2.83;;;26.60;48.60;27.70;100967.00;;;;5050906;28;20210;-41
2022/06/18 02:57:00;;;;;;;3.28;2.50;;;26.60;48.40;27.70;101016.00;;;;5068208;28;20236;-42
2022/06/18 02:59:27;;;;;;;3.92;2.50;;;26.60;48.30;27.70;101003.00;;;;5068433;28;20173;-42
2022/06/18 03:01:52;;;;;;;4.68;3.13;;;26.50;48.30;27.60;101019.00;;;;5068486;28;20170;-43
2022/06/18 03:04:18;;;;;;;4.63;2.90;;;26.60;47.90;27.60;101015.00;;;;5068230;28;20205;-43
2022/06/18 03:06:44;;;;;;;3.00;2.70;;;26.50;47.60;27.60;101025.00;;;;5068943;28;20177;-42
2022/06/18 03:09:10;;;;;;;2.60;2.40;;;26.50;47.50;27.60;101026.00;;;;5076402;28;20263;-41
2022/06/18 03:14:20;;;;;;;2.92;2.40;;;26.50;47.40;27.60;101033.00;;;;5067643;28;20238;-41
2022/06/18 03:16:46;;;;;;;3.50;2.58;;;26.50;47.20;27.50;101030.00;;;;5067763;28;20182;-41
2022/06/18 03:19:42;;;;;;;2.88;2.20;;;26.50;47.40;27.50;101030.00;;;;5067272;28;20173;-42
2022/06/18 03:22:12;;;;;;;2.80;2.60;;;26.50;47.50;27.50;101035.00;;;;5051885;28;20180;-41
2022/06/18 03:24:40;;;;;;;2.42;2.22;;;26.50;47.50;27.50;101037.00;;;;5050216;28;20605;-41
2022/06/18 03:27:10;;;;;;;2.53;2.33;;;26.50;47.50;27.50;101043.00;;;;5066928;28;20203;-41
2022/06/18 03:29:36;;;;;;;2.70;2.50;;;26.50;47.70;27.50;101033.00;;;;5067461;28;20197;-41
2022/06/18 03:32:04;;;;;;;4.05;2.30;;;26.50;47.40;27.50;101040.00;;;;5068209;28;20509;-42
2022/06/18 03:34:29;;;;;;;2.88;2.30;;;26.50;47.40;27.50;101040.00;;;;5077107;28;20595;-43
2022/06/18 03:36:56;;;;;;;4.95;2.30;;;26.40;47.40;27.40;101041.00;;;;5067598;28;20232;-40
2022/06/18 03:39:23;;;;;;;2.50;2.22;;;26.40;47.60;27.40;101050.00;;;;5067076;28;20537;-41
2022/06/18 03:41:49;;;;;;;3.55;2.50;;;26.40;47.70;27.40;101040.00;;;;5067555;28;20598;-41
2022/06/18 03:44:14;;;;;;;3.35;2.70;;;26.40;47.80;27.40;101043.00;;;;5067459;28;20246;-42
2022/06/18 03:46:40;;;;;;;3.63;2.40;;;26.40;47.50;27.40;101039.00;;;;5067162;28;20222;-40
2022/06/18 03:49:06;;;;;;;2.63;2.38;;;26.40;47.90;27.40;101037.00;;;;5048897;28;20576;-40
2022/06/18 03:51:33;;;;;;;2.97;2.50;;;26.40;47.60;27.40;101039.00;;;;5066975;28;20166;-42
2022/06/18 03:53:59;;;;;;;4.15;2.35;;;26.40;48.00;27.40;101048.00;;;;5064360;28;20670;-42
2022/06/18 03:56:28;;;;;;;2.95;2.30;;;26.40;48.20;27.40;101046.00;;;;5066014;28;20227;-41
2022/06/18 03:58:54;;;;;;;2.88;2.60;;;26.40;48.20;27.40;101049.00;;;;5066719;28;20178;-41
2022/06/18 04:01:23;;;;;;;3.75;2.60;;;26.40;48.00;27.40;101047.00;;;;5066840;28;20170;-42
2022/06/18 04:03:49;;;;;;;5.13;2.45;;;26.40;48.50;27.40;101047.00;;;;5066818;28;20656;-41
2022/06/18 04:06:15;;;;;;;2.53;2.33;;;26.40;48.20;27.30;101048.00;;;;5066710;28;20197;-42
2022/06/18 04:08:42;;;;;;;2.55;2.35;;;26.40;48.40;27.40;101041.00;;;;5066483;28;20259;-42
2022/06/18 04:11:09;;;;;;;2.60;2.40;;;26.40;48.20;27.30;101036.00;;;;5066792;28;20686;-41
2022/06/18 04:13:35;;;;;;;2.70;2.50;;;26.30;48.10;27.30;101035.00;;;;5066730;28;20185;-41
2022/06/18 04:16:01;;;;;;;2.67;2.20;;;26.30;48.30;27.30;101042.00;;;;5066551;28;20199;-42
2022/06/18 04:18:27;;;;;;;2.40;2.20;;;26.30;48.40;27.30;101042.00;;;;5065869;28;20244;-42
2022/06/18 04:20:53;;;;;;;3.00;2.50;;;26.30;48.10;27.30;101037.00;;;;5066520;28;20879;-41
2022/06/18 04:23:19;;;;;;;2.90;2.45;;;26.40;49.10;27.20;101037.00;;;;5066521;28;20200;-42
2022/06/18 04:25:44;;;;;;;2.85;2.42;;;26.30;48.40;27.20;101046.00;;;;5066042;28;20189;-41
2022/06/18 04:28:12;;;;;;;2.78;2.50;;;26.30;48.20;27.20;101036.00;;;;5065818;28;20162;-41
2022/06/18 04:30:38;;;;;;;2.85;2.30;;;26.30;48.20;27.20;101049.00;;;;5064801;28;20207;-41
2022/06/18 04:33:03;;;;;;;2.78;2.22;;;26.30;48.30;27.20;101045.00;;;;5065871;28;20193;-41
2022/06/18 04:35:29;;;;;;;2.78;2.53;;;26.40;48.20;27.20;101042.00;;;;5066158;28;20166;-41
2022/06/18 04:37:55;;;;;;;2.40;2.20;;;26.30;48.50;27.20;101039.00;;;;5065747;28;20177;-41
2022/06/18 04:40:28;;;;;;;2.50;2.30;;;26.30;48.30;27.20;101031.00;;;;5066140;28;20174;-42
2022/06/18 04:42:54;;;;;;;2.50;2.30;;;26.30;48.40;27.20;101031.00;;;;5066363;28;20284;-42
2022/06/18 04:45:19;;;;;;;2.50;2.30;;;26.30;48.40;27.20;100974.00;;;;5066903;28;20523;-42
2022/06/18 04:47:45;;;;;;;2.60;2.40;;;26.30;48.30;27.10;101037.00;;;;5067240;28;20189;-41
2022/06/18 04:50:18;;;;;;;2.70;2.50;;;26.30;48.40;27.20;101036.00;;;;5069629;28;20194;-51
2022/06/18 04:52:44;;;;;;;2.38;2.17;;;26.30;48.30;27.10;101029.00;;;;5078252;28;20177;-42
2022/06/18 04:55:10;;;;;;;6.78;2.80;;;26.20;48.40;27.10;101023.00;;;;5093243;28;20154;-40
2022/06/18 04:57:36;;;;;;;3.30;2.55;;;26.20;48.80;27.10;100962.00;;;;5083792;28;20180;-43
2022/06/18 05:00:04;;;;;;;2.75;2.55;;;26.20;48.80;27.10;101020.00;;;;5065683;28;20177;-42
2022/06/18 05:02:29;;;;;;;3.33;2.40;;;26.20;49.00;27.10;101018.00;;;;5065948;28;20260;-42
2022/06/18 05:04:55;;;;;;;2.60;2.40;;;26.20;49.00;27.10;101026.00;;;;5065789;28;20810;-41
2022/06/18 05:07:21;;;;;;;3.72;2.38;;;26.30;48.70;27.10;101018.00;;;;5065237;28;20177;-41
2022/06/18 05:09:48;;;;;;;2.83;2.45;;;26.20;48.70;27.10;101032.00;;;;5065636;28;20208;-42
2022/06/18 05:12:15;;;;;;;4.97;2.75;;;26.20;48.80;27.10;101025.00;;;;5066267;28;20307;-41
2022/06/18 05:14:41;;;;;;;4.70;2.45;;;26.20;48.90;27.00;101022.00;;;;5065908;28;20189;-41
2022/06/18 05:17:11;;;;;;;4.18;2.75;;;26.20;49.10;27.00;101023.00;;;;5065618;28;20173;-42
2022/06/18 05:19:37;;;;;;;4.85;2.70;;;26.20;49.40;27.00;101018.00;;;;5048098;28;20178;-41
2022/06/18 05:22:03;;;;;;;3.10;2.22;;;26.10;49.30;27.00;101019.00;;;;5065992;28;20173;-42
2022/06/18 05:24:29;;;;;;;3.50;2.40;;;26.10;49.40;27.00;101025.00;;;;5065460;28;20673;-42
2022/06/18 05:26:58;;;;;;;3.08;2.33;;;26.20;49.30;27.00;101024.00;;;;5065678;28;20166;-42
2022/06/18 05:29:24;;;;;;;2.72;2.53;;;26.10;49.40;27.00;101015.00;;;;5065044;28;20193;-42
2022/06/18 05:31:49;;;;;;;2.75;2.40;;;26.10;49.10;27.00;101011.00;;;;5065999;28;20197;-42
2022/06/18 05:34:15;;;;;;;2.97;2.42;;;26.10;49.30;27.00;101023.00;;;;5067444;28;20315;-41
2022/06/18 05:36:41;;;;;;;2.47;2.28;;;26.10;49.40;27.00;101025.00;;;;5073125;28;20176;-41
2022/06/18 05:39:07;;;;;;;3.70;2.58;;;26.10;49.40;27.00;101011.00;;;;5065429;28;20153;-42
2022/06/18 05:41:33;;;;;;;2.63;2.42;;;26.10;49.40;27.00;101017.00;;;;5065724;28;20656;-41
2022/06/18 05:43:59;;;;;;;3.25;2.35;;;26.10;49.40;26.90;101015.00;;;;5065359;28;20186;-43
2022/06/18 05:46:25;;;;;;;2.70;2.50;;;26.10;49.40;26.90;101007.00;;;;5065724;28;20535;-41
2022/06/18 05:48:52;;;;;;;2.40;2.20;;;26.00;49.50;26.90;101009.00;;;;5064702;28;20244;-41
2022/06/18 05:51:18;;;;;;;3.22;2.50;;;26.10;50.40;26.90;101007.00;;;;5065551;28;20166;-41
2022/06/18 05:53:43;;;;;;;2.72;2.28;;;26.10;49.90;26.90;101008.00;;;;5064500;28;20189;-41
2022/06/18 05:56:10;;;;;;;2.45;2.25;;;26.10;49.70;26.90;101008.00;;;;5064642;28;20169;-42
2022/06/18 05:58:36;;;;;;;5.10;2.60;;;26.10;49.80;26.90;101009.00;;;;5063476;28;20166;-42
2022/06/18 06:01:02;;;;;;;3.65;2.63;;;26.10;50.00;26.90;101011.00;;;;5065172;28;20184;-42
2022/06/18 06:03:28;;;;;;;4.03;2.60;;;26.10;49.90;26.90;101005.00;;;;4991714;28;20220;-43
2022/06/18 06:05:54;;;;;;;3.38;2.58;;;26.00;50.00;26.90;101003.00;;;;5085293;28;20722;-42
2022/06/18 06:08:19;;;;;;;5.40;3.17;;;26.00;50.20;26.90;101005.00;;;;5085236;28;20169;-43
2022/06/18 06:13:29;;;;;;;11.55;3.50;;;26.10;51.00;27.00;100999.00;;;;5098851;28;20199;-41
2022/06/18 06:15:55;;;;;;;7.05;3.40;;;26.10;52.50;27.00;101007.00;;;;5085421;28;20529;-41
2022/06/18 06:18:22;;;;;;;9.85;3.47;;;26.10;51.30;27.00;101011.00;;;;5102935;28;20176;-45
2022/06/18 06:20:53;;;;;;;9.07;3.33;;;26.00;52.20;27.00;101000.00;;;;5092966;28;20203;-44
2022/06/18 06:23:19;;;;;;;7.82;3.63;;;26.10;52.00;27.00;100998.00;;;;5104509;28;20845;-45
2022/06/18 06:25:46;;;;;;;10.27;3.17;;;26.20;51.80;27.00;101014.00;;;;5088669;28;20263;-44
2022/06/18 06:28:30;;;;;;;6.82;3.28;;;26.20;51.70;27.00;101008.00;;;;5090310;28;20268;-44
2022/06/18 06:30:55;;;;;;;9.68;3.00;;;26.20;51.70;27.00;101012.00;;;;5089790;28;20184;-43
2022/06/18 06:33:21;;;;;;;8.98;3.08;;;26.20;52.10;27.00;101010.00;;;;5089346;28;20771;-45
2022/06/18 06:35:47;;;;;;;7.07;3.03;;;26.20;51.80;27.00;101010.00;;;;5089387;28;20550;-45
2022/06/18 06:38:13;;;;;;;4.32;3.00;;;26.20;51.90;27.10;101000.00;;;;5088995;28;20173;-45
2022/06/18 06:40:43;;;;;;;8.18;3.15;;;26.20;51.70;27.10;101000.00;;;;5105043;28;20203;-43
2022/06/18 06:43:13;;;;;;;5.70;2.80;;;26.20;51.90;27.10;101002.00;;;;5104003;28;20261;-44
2022/06/18 06:45:39;;;;;;;6.43;3.20;;;26.20;51.70;27.10;101005.00;;;;5088603;28;20669;-43
2022/06/18 06:48:05;;;;;;;6.05;2.88;;;26.20;52.50;27.10;101001.00;;;;5087570;28;20173;-44
2022/06/18 06:50:31;;;;;;;4.38;2.70;;;26.20;51.70;27.10;101000.00;;;;5089282;28;20192;-43
2022/06/18 06:52:57;;;;;;;5.03;3.28;;;26.30;51.80;27.10;100996.00;;;;5088670;28;20276;-44
2022/06/18 06:58:11;;;;;;;4.00;2.90;;;26.30;51.90;27.10;101000.00;;;;5088289;28;20160;-43
2022/06/18 07:01:03;;;;;;;4.85;2.80;;;26.30;51.90;27.20;101002.00;;;;5088743;28;20255;-44
2022/06/18 07:03:33;;;;;;;5.22;2.80;;;26.30;51.90;27.10;101008.00;;;;5089170;28;20681;-43
2022/06/18 07:05:59;;;;;;;3.35;2.58;;;26.30;51.90;27.20;100989.00;;;;5104640;28;20242;-45
2022/06/18 07:08:25;;;;;;;4.70;2.88;;;26.30;51.90;27.20;100988.00;;;;5088281;28;20668;-44
2022/06/18 07:10:51;;;;;;;4.25;2.72;;;26.30;52.20;27.20;100991.00;;;;5088660;28;20463;-45
2022/06/18 07:13:18;;;;;;;3.97;2.90;;;26.30;52.20;27.20;100986.00;;;;5088421;28;20188;-44
2022/06/18 07:15:44;;;;;;;5.85;2.65;;;26.30;52.30;27.20;100996.00;;;;5088265;28;20939;-44
2022/06/18 07:18:18;;;;;;;3.85;2.40;;;26.30;52.20;27.20;100999.00;;;;5103665;28;20170;-44
2022/06/18 07:20:44;;;;;;;5.18;3.10;;;26.30;52.20;27.00;100984.00;;;;5102798;28;20649;-45
2022/06/18 07:23:10;;;;;;;2.75;2.53;;;26.30;52.30;27.20;100991.00;;;;5088004;28;20291;-45
2022/06/18 07:25:36;;;;;;;4.80;2.90;;;26.30;52.40;27.20;100992.00;;;;5088397;28;20541;-45
2022/06/18 07:28:01;;;;;;;4.07;2.50;;;26.30;53.00;27.20;100993.00;;;;5087658;28;20173;-45
2022/06/18 07:30:27;;;;;;;2.92;2.40;;;26.30;52.40;27.20;100989.00;;;;5088543;28;20204;-44
2022/06/18 07:32:53;;;;;;;5.43;2.90;;;26.30;52.50;27.20;100985.00;;;;5103867;28;20235;-44
2022/06/18 07:35:22;;;;;;;4.05;2.55;;;26.30;52.50;27.20;100997.00;;;;5088408;28;20188;-44
2022/06/18 07:37:48;;;;;;;2.90;2.60;;;26.30;52.60;27.20;100987.00;;;;5088273;28;20203;-43
2022/06/18 07:40:14;;;;;;;3.22;2.70;;;26.30;52.60;27.20;100989.00;;;;5088137;28;20173;-45
2022/06/18 07:42:40;;;;;;;2.80;2.50;;;26.30;53.30;27.30;100989.00;;;;5088057;28;20257;-44
2022/06/18 07:45:17;;;;;;;2.63;2.42;;;26.30;52.70;27.30;100995.00;;;;5087997;28;20256;-44
2022/06/18 07:47:45;;;;;;;2.58;2.38;;;26.30;52.90;27.30;100993.00;;;;5101732;28;20308;-45
2022/06/18 07:50:11;;;;;;;3.22;2.50;;;26.30;52.90;27.30;100995.00;;;;5087974;28;20764;-44
2022/06/18 07:52:37;;;;;;;3.38;2.55;;;26.30;52.90;27.30;100985.00;;;;5088070;28;20165;-44
2022/06/18 07:55:05;;;;;;;3.17;2.50;;;26.30;53.00;27.30;100985.00;;;;5089669;28;20184;-43
2022/06/18 07:57:30;;;;;;;4.72;2.70;;;26.30;52.90;27.30;100978.00;;;;5088677;28;20692;-43
2022/06/18 07:59:57;;;;;;;2.50;2.30;;;26.30;53.10;27.30;100978.00;;;;5087428;28;20200;-44
2022/06/18 08:02:23;;;;;;;3.30;2.40;;;26.40;53.10;27.30;100974.00;;;;5087320;28;20576;-44
2022/06/18 08:04:49;;;;;;;2.60;2.40;;;26.30;53.10;27.30;100971.00;;;;5087314;28;20619;-44
2022/06/18 08:07:15;;;;;;;2.60;2.28;;;26.40;53.30;27.40;100971.00;;;;5087261;28;20260;-44
2022/06/18 08:09:40;;;;;;;2.53;2.33;;;26.30;53.30;27.40;100966.00;;;;5087441;28;20193;-44
2022/06/18 08:12:06;;;;;;;2.60;2.40;;;26.40;53.40;27.40;100971.00;;;;5087071;28;20710;-43
2022/06/18 08:14:32;;;;;;;2.80;2.47;;;26.40;53.40;27.40;100961.00;;;;5102821;28;20208;-43
2022/06/18 08:16:58;;;;;;;3.08;2.50;;;26.40;53.50;27.40;100963.00;;;;5102756;28;20200;-43
2022/06/18 08:19:24;;;;;;;4.05;2.55;;;26.40;53.50;27.40;100962.00;;;;5086477;28;20211;-44
2022/06/18 08:21:50;;;;;;;2.95;2.33;;;26.40;53.60;27.40;100963.00;;;;5087105;28;20179;-42
2022/06/18 08:24:18;;;;;;;2.72;2.53;;;26.40;53.60;27.40;100951.00;;;;5086869;28;20200;-43
2022/06/18 08:26:43;;;;;;;2.60;2.40;;;26.40;53.70;27.40;100951.00;;;;5102725;28;20226;-43
2022/06/18 08:29:12;;;;;;;2.90;2.55;;;26.40;53.70;27.40;100939.00;;;;5102682;28;20193;-44
2022/06/18 08:31:38;;;;;;;2.58;2.30;;;26.40;53.50;27.40;100948.00;;;;4983033;28;20181;-44
2022/06/18 08:34:03;;;;;;;3.13;2.35;;;26.50;53.80;27.40;100947.00;;;;5094560;28;20196;-43
2022/06/18 08:36:29;;;;;;;3.10;2.58;;;26.40;53.70;27.40;100935.00;;;;5103775;28;20173;-43
2022/06/18 08:38:55;;;;;;;2.78;2.50;;;26.50;53.80;27.40;100935.00;;;;5094344;28;20172;-44
2022/06/18 08:41:45;;;;;;;4.15;2.40;;;26.40;53.90;27.50;100937.00;;;;5114528;27;20198;-44
2022/06/18 08:44:48;;;;;;;2.70;2.50;;;26.50;54.00;27.50;100940.00;;;;5086655;27;20559;-43
2022/06/18 08:47:56;;;;;;;4.18;2.60;;;26.50;54.10;27.50;100941.00;;;;5085971;28;20645;-44
2022/06/18 08:50:42;;;;;;;2.60;2.40;;;26.50;54.10;27.50;100938.00;;;;5097985;28;20204;-44
2022/06/18 08:53:22;;;;;;;3.38;2.47;;;26.60;54.10;27.50;100936.00;;;;5093046;28;20188;-43
2022/06/18 08:55:58;;;;;;;3.13;2.63;;;26.60;54.20;27.50;100925.00;;;;5107386;28;20210;-43
2022/06/18 08:58:55;;;;;;;3.70;2.63;;;26.60;54.30;27.50;100933.00;;;;5106640;28;20172;-44
2022/06/18 09:01:31;;;;;;;3.03;2.70;;;26.60;54.40;27.50;100930.00;;;;5110299;27;20184;-44
2022/06/18 09:04:19;;;;;;;2.90;2.60;;;26.60;54.40;27.60;100929.00;;;;5121474;27;20194;-44
2022/06/18 09:06:51;;;;;;;2.72;2.40;;;26.60;54.40;27.60;100921.00;;;;5066143;28;20154;-44
2022/06/18 09:09:39;;;;;;;3.25;2.50;;;26.60;54.40;27.60;100920.00;;;;5066038;28;20209;-44
2022/06/18 09:12:11;;;;;;;4.15;2.83;;;26.60;54.40;27.60;100916.00;;;;5075971;28;20687;-43
2022/06/18 09:15:04;;;;;;;2.60;2.40;;;26.70;54.60;27.60;100923.00;;;;5078778;28;20193;-43
2022/06/18 09:17:47;;;;;;;2.70;2.50;;;26.70;54.60;27.60;100911.00;;;;5075718;28;20210;-44
2022/06/18 09:20:29;;;;;;;2.90;2.63;;;26.70;54.70;27.70;100910.00;;;;5071320;28;20164;-44
2022/06/18 09:22:58;;;;;;;3.15;2.60;;;26.70;54.70;27.60;100914.00;;;;5049786;28;20210;-44
2022/06/18 09:25:27;;;;;;;2.55;2.35;;;26.80;54.80;27.70;100918.00;;;;5047915;28;20771;-44
2022/06/18 09:28:24;;;;;;;2.88;2.67;;;26.80;54.90;27.70;100898.00;;;;5062534;28;20189;-44
2022/06/18 09:31:00;;;;;;;2.70;2.50;;;26.80;54.80;27.70;100905.00;;;;5060116;28;20688;-45
2022/06/18 09:33:43;;;;;;;3.47;2.70;;;26.80;55.00;27.70;100906.00;;;;5074679;28;20688;-43
2022/06/18 09:36:24;;;;;;;2.47;2.28;;;26.80;55.10;27.70;100907.00;;;;5074471;28;20185;-44
2022/06/18 09:39:13;;;;;;;2.78;2.55;;;26.80;55.10;27.80;100907.00;;;;5067853;28;20168;-44
2022/06/18 09:41:51;;;;;;;2.85;2.50;;;26.90;55.50;27.80;100894.00;;;;5085035;28;20154;-45
2022/06/18 09:44:33;;;;;;;3.47;2.80;;;26.90;55.50;27.80;100894.00;;;;5084665;28;20192;-43
2022/06/18 09:47:12;;;;;;;2.72;2.53;;;26.90;55.50;27.80;100901.00;;;;5084881;28;20650;-45
2022/06/18 09:49:38;;;;;;;2.80;2.60;;;26.90;55.50;27.80;100899.00;;;;5084638;28;20188;-44
2022/06/18 09:52:14;;;;;;;3.25;2.70;;;26.90;55.50;27.80;100893.00;;;;5086090;28;20167;-44
2022/06/18 09:54:48;;;;;;;3.08;2.42;;;26.90;55.50;27.90;100895.00;;;;5089044;28;20238;-44
2022/06/18 09:57:17;;;;;;;4.57;2.83;;;27.00;55.50;27.90;100889.00;;;;5089013;28;20161;-43
2022/06/18 09:59:47;;;;;;;4.40;2.67;;;27.00;55.50;27.90;100887.00;;;;5089128;28;20763;-45
2022/06/18 10:02:22;;;;;;;5.20;2.78;;;27.00;55.50;27.90;100884.00;;;;5003296;28;20184;-43
2022/06/18 10:07:35;;;;;;;4.47;2.60;;;27.10;56.00;27.90;100870.00;;;;5088289;28;20173;-45
2022/06/18 10:10:06;;;;;;;3.05;2.60;;;27.10;55.90;28.00;100885.00;;;;5075916;28;20712;-45
2022/06/18 10:12:35;;;;;;;3.33;2.83;;;27.10;56.20;28.00;100881.00;;;;5068557;28;20239;-45
2022/06/18 10:15:04;;;;;;;3.50;2.80;;;27.20;56.00;28.00;100874.00;;;;5095149;28;20176;-43
2022/06/18 10:17:54;;;;;;;4.53;2.90;;;27.20;56.00;28.00;100877.00;;;;5112971;27;20184;-44
2022/06/18 10:20:42;;;;;;;4.05;2.50;;;27.20;56.00;28.10;100875.00;;;;5093742;28;20225;-44
2022/06/18 10:23:48;;;;;;;3.97;2.70;;;27.20;56.00;28.10;100877.00;;;;5102071;28;20275;-44
2022/06/18 10:26:50;;;;;;;3.72;2.90;;;27.30;56.00;28.10;100873.00;;;;5089083;28;20157;-45
2022/06/18 10:29:21;;;;;;;3.30;2.63;;;27.30;56.00;28.10;100874.00;;;;5102056;28;20283;-44
2022/06/18 10:32:14;;;;;;;6.55;2.90;;;27.30;56.10;28.20;100861.00;;;;5088963;28;20200;-43
2022/06/18 10:35:25;;;;;;;4.50;2.70;;;27.30;55.70;28.20;100854.00;;;;5102364;28;20197;-43
2022/06/18 10:38:23;;;;;;;4.95;2.70;;;27.40;56.00;28.20;100847.00;;;;5087454;28;20683;-43
2022/06/18 10:41:12;;;;;;;4.05;2.90;;;27.40;56.10;28.30;100848.00;;;;5086933;28;20649;-43
2022/06/18 10:43:57;;;;;;;3.92;2.75;;;27.50;56.20;28.30;100851.00;;;;5104097;28;20185;-45
2022/06/18 10:46:23;;;;;;;3.78;2.83;;;27.50;56.00;28.30;100858.00;;;;5104604;28;20240;-45
2022/06/18 10:48:54;;;;;;;4.45;2.75;;;27.60;56.00;28.40;100857.00;;;;5088414;28;20668;-44
2022/06/18 10:51:24;;;;;;;2.70;2.50;;;27.60;56.00;28.40;100853.00;;;;5104063;28;20836;-44
2022/06/18 10:54:02;;;;;;;3.63;2.70;;;27.60;56.00;28.40;100844.00;;;;5104205;28;20264;-43
2022/06/18 10:56:31;;;;;;;3.28;2.97;;;27.60;55.90;28.50;100847.00;;;;5088488;28;20196;-45
2022/06/18 10:58:59;;;;;;;3.72;2.58;;;27.70;56.00;28.50;100845.00;;;;5087164;28;20262;-43
2022/06/18 11:01:38;;;;;;;3.65;2.72;;;27.70;56.00;28.50;100846.00;;;;5004101;28;20177;-43
2022/06/18 11:04:17;;;;;;;4.18;2.85;;;27.80;56.10;28.60;100844.00;;;;5069922;28;20189;-45
2022/06/18 11:06:47;;;;;;;5.15;3.10;;;27.80;56.20;28.60;100832.00;;;;5093835;28;20254;-44
2022/06/18 11:09:35;;;;;;;3.17;2.42;;;27.80;56.30;28.60;100838.00;;;;5103841;27;20197;-45
2022/06/18 11:12:05;;;;;;;4.95;2.95;;;27.80;56.00;28.60;100829.00;;;;5090295;28;20176;-44
2022/06/18 11:14:40;;;;;;;4.32;2.95;;;27.90;56.10;28.70;100828.00;;;;5091476;28;20204;-45
2022/06/18 11:17:19;;;;;;;3.25;2.95;;;27.90;56.10;28.70;100828.00;;;;5091470;28;20759;-45
2022/06/18 11:19:48;;;;;;;7.22;2.97;;;27.90;55.80;28.70;100824.00;;;;5106998;28;20173;-44